Time;durP1;ratioP1;P1;durP2;ratioP2;P2;SDS_P1;SDS_P2;PMS_P1;PMS_P2;Temp;Humidity;BMP_temperature;BMP_pressure;BME280_temperature;BME280_humidity;BME280_pressure;Samples;Min_cycle;Max_cycle;Signal;HPM_P1;HPM_P2
2021/11/25 00:02:14;;;;;;;41.95;18.08;;;;;;;;;;5022436;28;21706;-81
2021/11/25 00:04:39;;;;;;;37.55;18.13;;;;;;;;;;5049218;28;20572;-78
2021/11/25 00:07:05;;;;;;;38.22;17.92;;;;;;;;;;5017440;28;20128;-77
2021/11/25 00:09:30;;;;;;;35.83;17.48;;;;;;;;;;5015952;28;20048;-81
2021/11/25 00:11:56;;;;;;;36.50;17.73;;;;;;;;;;5030329;28;20037;-78
2021/11/25 00:14:21;;;;;;;38.80;17.80;;;;;;;;;;5032265;28;20029;-81
2021/11/25 00:16:46;;;;;;;35.95;17.30;;;;;;;;;;5016569;28;20025;-78
2021/11/25 00:19:12;;;;;;;38.20;18.42;;;;;;;;;;5023617;28;20499;-78
2021/11/25 00:21:38;;;;;;;38.58;18.25;;;;;;;;;;5016917;28;20025;-77
2021/11/25 00:24:05;;;;;;;38.60;17.90;;;;;;;;;;5015531;28;20021;-78
2021/11/25 00:26:31;;;;;;;39.13;17.73;;;;;;;;;;5031377;28;20358;-77
2021/11/25 00:28:56;;;;;;;36.35;17.30;;;;;;;;;;5011557;28;20095;-77
2021/11/25 00:31:21;;;;;;;37.65;18.13;;;;;;;;;;5023020;28;20030;-80
2021/11/25 00:33:47;;;;;;;38.13;18.20;;;;;;;;;;5019833;28;20025;-76
2021/11/25 00:36:12;;;;;;;35.53;18.45;;;;;;;;;;5015972;28;20033;-81
2021/11/25 00:38:37;;;;;;;38.38;18.42;;;;;;;;;;5016082;28;20037;-78
2021/11/25 00:41:03;;;;;;;40.22;17.73;;;;;;;;;;5033390;28;20406;-78
2021/11/25 00:43:28;;;;;;;40.42;19.40;;;;;;;;;;5033156;28;20037;-78
2021/11/25 00:45:54;;;;;;;40.40;19.75;;;;;;;;;;5016585;28;20183;-81
2021/11/25 00:48:19;;;;;;;37.70;18.80;;;;;;;;;;5023779;28;20034;-80
2021/11/25 00:50:44;;;;;;;40.15;19.70;;;;;;;;;;5017299;28;20083;-77
2021/11/25 00:53:10;;;;;;;38.38;19.15;;;;;;;;;;5020931;28;20108;-78
2021/11/25 00:55:38;;;;;;;37.92;19.20;;;;;;;;;;5013688;28;20076;-80
2021/11/25 00:58:04;;;;;;;41.75;19.25;;;;;;;;;;5027527;28;20560;-78
2021/11/25 01:00:29;;;;;;;37.60;17.88;;;;;;;;;;5010319;28;20037;-77
2021/11/25 01:02:54;;;;;;;40.70;18.00;;;;;;;;;;5026294;28;20041;-78
2021/11/25 01:05:20;;;;;;;37.47;17.63;;;;;;;;;;5016604;28;20560;-77
2021/11/25 01:07:46;;;;;;;42.35;20.42;;;;;;;;;;5024509;28;20031;-81
2021/11/25 01:10:14;;;;;;;39.92;19.40;;;;;;;;;;5031485;28;20029;-81
2021/11/25 01:12:40;;;;;;;37.70;18.27;;;;;;;;;;5012943;28;20036;-80
2021/11/25 01:15:07;;;;;;;41.00;18.58;;;;;;;;;;5016261;28;20362;-77
2021/11/25 01:17:34;;;;;;;38.78;18.23;;;;;;;;;;5010328;28;20543;-78
2021/11/25 01:20:00;;;;;;;35.83;17.95;;;;;;;;;;5031963;28;20704;-79
2021/11/25 01:22:25;;;;;;;36.30;18.35;;;;;;;;;;5011777;28;20239;-78
2021/11/25 01:24:50;;;;;;;34.63;17.92;;;;;;;;;;5031178;28;20036;-79
2021/11/25 01:27:16;;;;;;;31.45;16.48;;;;;;;;;;5026223;28;20047;-78
2021/11/25 01:29:42;;;;;;;31.40;16.15;;;;;;;;;;5030387;28;20091;-80
2021/11/25 01:32:08;;;;;;;29.67;14.52;;;;;;;;;;5017579;28;20278;-78
2021/11/25 01:34:33;;;;;;;28.08;16.23;;;;;;;;;;5015524;28;20750;-78
2021/11/25 01:36:58;;;;;;;32.10;15.48;;;;;;;;;;5012375;28;20029;-81
2021/11/25 01:39:24;;;;;;;27.45;15.00;;;;;;;;;;5028582;28;20040;-80
2021/11/25 01:41:49;;;;;;;29.02;15.90;;;;;;;;;;5017584;28;20037;-81
2021/11/25 01:44:15;;;;;;;30.45;15.95;;;;;;;;;;5030735;28;20116;-78
2021/11/25 01:46:41;;;;;;;31.98;17.48;;;;;;;;;;5009901;28;20116;-80
2021/11/25 01:49:07;;;;;;;29.25;15.82;;;;;;;;;;5026374;28;20112;-81
2021/11/25 01:51:32;;;;;;;30.80;16.70;;;;;;;;;;5018023;28;20029;-80
2021/11/25 01:53:58;;;;;;;32.20;18.15;;;;;;;;;;5013690;28;20021;-78
2021/11/25 01:56:24;;;;;;;28.58;16.35;;;;;;;;;;5026316;28;20034;-80
2021/11/25 01:58:49;;;;;;;29.60;16.88;;;;;;;;;;5016711;28;20033;-80
2021/11/25 02:01:17;;;;;;;34.08;17.08;;;;;;;;;;5043758;28;20042;-78
2021/11/25 02:03:43;;;;;;;30.23;17.58;;;;;;;;;;5018809;28;20021;-78
2021/11/25 02:06:10;;;;;;;32.65;18.60;;;;;;;;;;5008107;28;20022;-81
2021/11/25 02:08:36;;;;;;;32.38;18.05;;;;;;;;;;5049423;28;20052;-80
2021/11/25 02:11:02;;;;;;;32.17;19.52;;;;;;;;;;5017286;28;20488;-77
2021/11/25 02:13:29;;;;;;;29.45;17.83;;;;;;;;;;5032856;28;20380;-80
2021/11/25 02:15:56;;;;;;;30.92;18.02;;;;;;;;;;5018598;28;20041;-77
2021/11/25 02:18:22;;;;;;;27.67;17.45;;;;;;;;;;5013666;28;20119;-80
2021/11/25 02:20:55;;;;;;;30.27;18.38;;;;;;;;;;5027552;28;20038;-80
2021/11/25 02:23:21;;;;;;;31.67;19.05;;;;;;;;;;5025651;28;20044;-80
2021/11/25 02:25:48;;;;;;;30.38;17.67;;;;;;;;;;5013860;28;20128;-78
2021/11/25 02:28:16;;;;;;;32.58;18.63;;;;;;;;;;5031035;28;20048;-80
2021/11/25 02:30:41;;;;;;;26.58;17.17;;;;;;;;;;5012210;28;20033;-78
2021/11/25 02:33:07;;;;;;;30.05;18.58;;;;;;;;;;5008659;28;20025;-77
2021/11/25 02:35:38;;;;;;;28.38;17.95;;;;;;;;;;5012890;28;20036;-80
2021/11/25 02:38:04;;;;;;;28.60;17.38;;;;;;;;;;5027457;28;20029;-80
2021/11/25 02:40:32;;;;;;;27.13;17.83;;;;;;;;;;5031252;28;20027;-81
2021/11/25 02:43:00;;;;;;;30.17;17.77;;;;;;;;;;5028118;28;20033;-80
2021/11/25 02:45:27;;;;;;;32.13;18.70;;;;;;;;;;5016840;28;20040;-76
2021/11/25 02:47:53;;;;;;;27.30;17.48;;;;;;;;;;5029180;28;20043;-80
2021/11/25 02:50:22;;;;;;;27.02;17.85;;;;;;;;;;5028381;28;20698;-77
2021/11/25 02:52:48;;;;;;;27.00;16.77;;;;;;;;;;5015917;28;20040;-80
2021/11/25 02:55:15;;;;;;;29.02;18.08;;;;;;;;;;5011733;28;20030;-80
2021/11/25 02:57:41;;;;;;;27.67;18.13;;;;;;;;;;5015194;28;20589;-78
2021/11/25 03:00:26;;;;;;;29.48;18.23;;;;;;;;;;5022969;28;20107;-77
2021/11/25 03:03:06;;;;;;;27.25;17.58;;;;;;;;;;5042200;28;23076;-77
2021/11/25 03:05:33;;;;;;;28.65;18.52;;;;;;;;;;5028186;28;20029;-80
2021/11/25 03:08:05;;;;;;;29.00;18.20;;;;;;;;;;5029752;28;20042;-80
2021/11/25 03:10:42;;;;;;;31.08;18.08;;;;;;;;;;5031140;28;20025;-80
2021/11/25 03:13:10;;;;;;;28.50;18.52;;;;;;;;;;5011713;28;21225;-81
2021/11/25 03:15:37;;;;;;;32.63;20.00;;;;;;;;;;5012458;28;20037;-77
2021/11/25 03:18:04;;;;;;;31.13;19.00;;;;;;;;;;5018477;28;20038;-76
2021/11/25 03:20:29;;;;;;;29.15;19.35;;;;;;;;;;5012675;28;20065;-77
2021/11/25 03:22:55;;;;;;;30.50;19.70;;;;;;;;;;5019818;28;20745;-78
2021/11/25 03:25:21;;;;;;;29.10;18.65;;;;;;;;;;5045424;28;20095;-80
2021/11/25 03:27:46;;;;;;;34.97;19.77;;;;;;;;;;5009856;28;20033;-77
2021/11/25 03:30:12;;;;;;;32.35;19.33;;;;;;;;;;5021911;28;20451;-77
2021/11/25 03:32:37;;;;;;;29.85;19.30;;;;;;;;;;5016113;28;20097;-80
2021/11/25 03:35:03;;;;;;;34.20;20.02;;;;;;;;;;5029562;28;20037;-78
2021/11/25 03:37:29;;;;;;;34.88;21.50;;;;;;;;;;5026395;28;20034;-78
2021/11/25 03:39:54;;;;;;;31.83;19.92;;;;;;;;;;5013370;28;20034;-78
2021/11/25 03:42:19;;;;;;;32.17;19.63;;;;;;;;;;5030290;28;20026;-80
2021/11/25 03:44:46;;;;;;;34.60;20.70;;;;;;;;;;5015859;28;20507;-80
2021/11/25 03:47:12;;;;;;;32.20;20.35;;;;;;;;;;5033961;28;20025;-80
2021/11/25 03:49:38;;;;;;;32.53;19.85;;;;;;;;;;5033701;28;20029;-80
2021/11/25 03:52:04;;;;;;;33.17;20.75;;;;;;;;;;5013665;28;20018;-80
2021/11/25 03:54:30;;;;;;;36.80;21.30;;;;;;;;;;5012643;28;20128;-77
2021/11/25 03:56:55;;;;;;;32.20;19.92;;;;;;;;;;5030213;28;20033;-78
2021/11/25 03:59:20;;;;;;;33.97;21.02;;;;;;;;;;5015103;28;20041;-81
2021/11/25 04:01:46;;;;;;;33.05;19.50;;;;;;;;;;5033857;28;20087;-77
2021/11/25 04:04:11;;;;;;;33.85;20.92;;;;;;;;;;5030055;28;20041;-78
2021/11/25 04:06:37;;;;;;;33.00;20.55;;;;;;;;;;5027871;28;20177;-78
2021/11/25 04:09:04;;;;;;;32.47;19.33;;;;;;;;;;5025650;28;20054;-78
2021/11/25 04:11:29;;;;;;;30.65;19.38;;;;;;;;;;5014452;28;20040;-78
2021/11/25 04:13:56;;;;;;;31.10;19.92;;;;;;;;;;5016957;28;20025;-78
2021/11/25 04:16:21;;;;;;;34.60;20.77;;;;;;;;;;5016306;28;20116;-80
2021/11/25 04:18:47;;;;;;;34.20;20.27;;;;;;;;;;5031932;28;20112;-78
2021/11/25 04:21:12;;;;;;;32.92;19.00;;;;;;;;;;5031791;28;20026;-80
2021/11/25 04:23:38;;;;;;;33.90;20.42;;;;;;;;;;5025552;28;20033;-80
2021/11/25 04:26:03;;;;;;;32.28;20.65;;;;;;;;;;4999489;28;20076;-80
2021/11/25 04:28:28;;;;;;;36.28;20.30;;;;;;;;;;5025983;28;20029;-78
2021/11/25 04:36:23;;;;;;;34.10;19.88;;;;;;;;;;5026185;28;20107;-80
2021/11/25 04:38:48;;;;;;;32.95;20.83;;;;;;;;;;5018289;28;20025;-81
2021/11/25 04:41:13;;;;;;;34.03;19.83;;;;;;;;;;5035107;28;20112;-77
2021/11/25 04:43:39;;;;;;;34.33;19.77;;;;;;;;;;5036721;28;20041;-78
2021/11/25 04:46:05;;;;;;;33.20;20.00;;;;;;;;;;5012706;28;20063;-76
2021/11/25 04:48:31;;;;;;;36.10;20.70;;;;;;;;;;5008206;28;20465;-78
2021/11/25 04:50:57;;;;;;;33.45;19.73;;;;;;;;;;5000601;28;20115;-77
2021/11/25 04:53:23;;;;;;;33.50;20.38;;;;;;;;;;5031371;28;20083;-80
2021/11/25 04:55:49;;;;;;;34.42;20.98;;;;;;;;;;5014543;28;20129;-78
2021/11/25 04:58:15;;;;;;;33.45;19.45;;;;;;;;;;5032893;28;20067;-78
2021/11/25 05:00:40;;;;;;;32.08;19.70;;;;;;;;;;5018463;28;20052;-80
2021/11/25 05:03:06;;;;;;;32.42;19.80;;;;;;;;;;5008211;28;20040;-80
2021/11/25 05:05:32;;;;;;;34.85;19.92;;;;;;;;;;5027099;28;20408;-80
2021/11/25 05:07:57;;;;;;;32.00;19.58;;;;;;;;;;5016551;28;20033;-80
2021/11/25 05:10:22;;;;;;;34.42;19.90;;;;;;;;;;5014555;28;20021;-77
2021/11/25 05:12:48;;;;;;;33.58;19.58;;;;;;;;;;5038195;28;20480;-81
2021/11/25 05:15:16;;;;;;;33.35;20.33;;;;;;;;;;5013469;28;20036;-80
2021/11/25 05:17:42;;;;;;;34.08;19.83;;;;;;;;;;5012947;28;20059;-77
2021/11/25 05:20:10;;;;;;;31.90;19.23;;;;;;;;;;5031498;28;20033;-77
2021/11/25 05:22:36;;;;;;;32.70;19.85;;;;;;;;;;5012050;28;20584;-78
2021/11/25 05:25:02;;;;;;;31.92;20.10;;;;;;;;;;5028306;28;20128;-77
2021/11/25 05:27:27;;;;;;;33.65;19.92;;;;;;;;;;5013800;28;20029;-80
2021/11/25 05:29:52;;;;;;;32.50;19.75;;;;;;;;;;5012872;28;20025;-80
2021/11/25 05:32:18;;;;;;;33.40;20.40;;;;;;;;;;5027625;28;20087;-80
2021/11/25 05:34:45;;;;;;;33.72;20.27;;;;;;;;;;5011166;28;20377;-77
2021/11/25 05:37:12;;;;;;;31.55;19.33;;;;;;;;;;5030200;28;20017;-80
2021/11/25 05:39:38;;;;;;;32.30;19.30;;;;;;;;;;5015036;28;20438;-78
2021/11/25 05:42:03;;;;;;;32.92;19.92;;;;;;;;;;5024813;28;20025;-81
2021/11/25 05:44:29;;;;;;;33.67;20.42;;;;;;;;;;5028770;28;20033;-77
2021/11/25 05:46:54;;;;;;;33.78;19.90;;;;;;;;;;5010067;28;20179;-77
2021/11/25 05:49:19;;;;;;;31.98;19.83;;;;;;;;;;5009846;28;20095;-80
2021/11/25 05:51:45;;;;;;;32.38;20.23;;;;;;;;;;5028427;28;20025;-80
2021/11/25 05:54:10;;;;;;;33.20;19.20;;;;;;;;;;5030549;28;20031;-80
2021/11/25 05:56:36;;;;;;;36.83;21.40;;;;;;;;;;5016980;28;20024;-78
2021/11/25 05:59:01;;;;;;;34.05;20.27;;;;;;;;;;5028447;28;20112;-78
2021/11/25 06:01:26;;;;;;;35.35;20.40;;;;;;;;;;5010557;28;20036;-78
2021/11/25 06:03:53;;;;;;;34.30;20.33;;;;;;;;;;4999233;28;20029;-80
2021/11/25 06:06:19;;;;;;;36.13;21.48;;;;;;;;;;5029793;28;20103;-78
2021/11/25 06:08:45;;;;;;;34.40;20.48;;;;;;;;;;5013993;28;20056;-80
2021/11/25 06:11:12;;;;;;;37.38;21.92;;;;;;;;;;5006350;28;20113;-76
2021/11/25 06:13:38;;;;;;;33.42;20.40;;;;;;;;;;5008493;28;20033;-77
2021/11/25 06:16:04;;;;;;;33.75;20.08;;;;;;;;;;5011011;28;20025;-79
2021/11/25 06:18:30;;;;;;;33.72;20.35;;;;;;;;;;5011614;28;20038;-78
2021/11/25 06:20:55;;;;;;;33.42;19.92;;;;;;;;;;5012948;28;20047;-80
2021/11/25 06:23:21;;;;;;;31.42;19.02;;;;;;;;;;5008966;28;20076;-80
2021/11/25 06:25:46;;;;;;;31.63;18.67;;;;;;;;;;5012168;28;20022;-78
2021/11/25 06:28:12;;;;;;;32.42;19.08;;;;;;;;;;5013515;28;20524;-77
2021/11/25 06:30:37;;;;;;;29.55;18.92;;;;;;;;;;5006108;28;20032;-77
2021/11/25 06:33:03;;;;;;;30.52;19.38;;;;;;;;;;5008577;28;20087;-81
2021/11/25 06:35:28;;;;;;;30.48;19.08;;;;;;;;;;5018783;28;20034;-78
2021/11/25 06:37:55;;;;;;;30.63;19.13;;;;;;;;;;5013862;28;20029;-80
2021/11/25 06:40:26;;;;;;;27.92;17.70;;;;;;;;;;5011134;28;20036;-78
2021/11/25 06:42:57;;;;;;;28.58;18.27;;;;;;;;;;5009943;28;20108;-80
2021/11/25 06:45:24;;;;;;;30.83;19.08;;;;;;;;;;5008975;28;20049;-77
2021/11/25 06:47:50;;;;;;;28.00;17.67;;;;;;;;;;5005094;28;20032;-81
2021/11/25 06:50:17;;;;;;;30.65;17.95;;;;;;;;;;5006309;28;20042;-80
2021/11/25 06:52:43;;;;;;;29.90;18.90;;;;;;;;;;5001979;28;20108;-78
2021/11/25 06:55:09;;;;;;;27.73;17.67;;;;;;;;;;5007363;28;20136;-77
2021/11/25 06:57:37;;;;;;;28.83;18.40;;;;;;;;;;5005377;28;20057;-81
2021/11/25 07:00:08;;;;;;;29.98;19.05;;;;;;;;;;5011417;28;20037;-78
2021/11/25 07:02:34;;;;;;;30.05;19.17;;;;;;;;;;5008489;28;20401;-80
2021/11/25 07:05:00;;;;;;;30.85;19.13;;;;;;;;;;5003555;28;20022;-78
2021/11/25 07:07:26;;;;;;;29.70;19.23;;;;;;;;;;5009576;28;20056;-80
2021/11/25 07:09:51;;;;;;;31.85;19.20;;;;;;;;;;5010358;28;20045;-77
2021/11/25 07:12:17;;;;;;;32.83;19.83;;;;;;;;;;5013009;28;20627;-80
2021/11/25 07:14:42;;;;;;;30.95;20.20;;;;;;;;;;5009314;28;20040;-77
2021/11/25 07:17:07;;;;;;;34.00;20.15;;;;;;;;;;5009910;28;20026;-77
2021/11/25 07:19:33;;;;;;;31.25;19.67;;;;;;;;;;5013214;28;20485;-78
2021/11/25 07:21:58;;;;;;;31.83;21.08;;;;;;;;;;5017887;28;20109;-81
2021/11/25 07:24:24;;;;;;;34.38;21.42;;;;;;;;;;5007177;28;20034;-80
2021/11/25 07:26:49;;;;;;;31.60;20.50;;;;;;;;;;5011704;28;20100;-76
2021/11/25 07:29:15;;;;;;;29.33;20.05;;;;;;;;;;5021894;28;20072;-80
2021/11/25 07:31:40;;;;;;;31.55;18.92;;;;;;;;;;5016295;28;20018;-80
2021/11/25 07:34:06;;;;;;;31.85;20.90;;;;;;;;;;5009907;28;20022;-77
2021/11/25 07:36:31;;;;;;;30.73;19.88;;;;;;;;;;5004570;28;20656;-78
2021/11/25 07:38:57;;;;;;;29.33;19.90;;;;;;;;;;5011131;28;20074;-81
2021/11/25 07:41:22;;;;;;;31.17;20.63;;;;;;;;;;5013014;28;20121;-80
2021/11/25 07:43:47;;;;;;;32.83;21.13;;;;;;;;;;5008259;28;20041;-78
2021/11/25 07:46:13;;;;;;;30.55;20.50;;;;;;;;;;5000078;28;20034;-80
2021/11/25 07:48:38;;;;;;;31.80;20.80;;;;;;;;;;5008207;28;20069;-77
2021/11/25 07:51:04;;;;;;;32.20;20.10;;;;;;;;;;5009759;28;20030;-76
2021/11/25 07:53:29;;;;;;;30.10;19.70;;;;;;;;;;4996321;28;20029;-80
2021/11/25 07:55:55;;;;;;;30.30;21.55;;;;;;;;;;5011253;28;20113;-81
2021/11/25 07:58:21;;;;;;;31.17;20.48;;;;;;;;;;5010723;28;20030;-80
2021/11/25 08:00:46;;;;;;;32.33;21.02;;;;;;;;;;5012161;28;20030;-80
2021/11/25 08:03:12;;;;;;;32.83;20.83;;;;;;;;;;5009295;28;20508;-80
2021/11/25 08:05:37;;;;;;;32.05;20.95;;;;;;;;;;5011017;28;20078;-80
2021/11/25 08:08:03;;;;;;;35.22;20.40;;;;;;;;;;5009672;28;20478;-80
2021/11/25 08:10:28;;;;;;;27.90;19.40;;;;;;;;;;5020795;28;20063;-77
2021/11/25 08:12:55;;;;;;;31.23;19.48;;;;;;;;;;5018424;28;20017;-78
2021/11/25 08:15:20;;;;;;;28.23;19.02;;;;;;;;;;5030454;28;20518;-80
2021/11/25 08:17:46;;;;;;;32.42;19.52;;;;;;;;;;5031930;28;20029;-81
2021/11/25 08:20:12;;;;;;;31.05;18.95;;;;;;;;;;5033947;28;20033;-80
2021/11/25 08:22:38;;;;;;;28.10;19.70;;;;;;;;;;5033877;28;20029;-81
2021/11/25 08:25:06;;;;;;;27.30;18.83;;;;;;;;;;5015334;28;20037;-78
2021/11/25 08:27:32;;;;;;;30.20;19.08;;;;;;;;;;5013077;28;20776;-81
2021/11/25 08:29:58;;;;;;;26.25;18.33;;;;;;;;;;5033465;28;20033;-77
2021/11/25 08:32:23;;;;;;;28.38;18.75;;;;;;;;;;5033674;28;20021;-81
2021/11/25 08:34:49;;;;;;;27.58;18.05;;;;;;;;;;5034396;28;20029;-77
2021/11/25 08:37:14;;;;;;;26.45;18.60;;;;;;;;;;5019323;28;20034;-78
2021/11/25 08:39:40;;;;;;;26.50;17.85;;;;;;;;;;5028903;28;20037;-80
2021/11/25 08:42:06;;;;;;;27.90;18.67;;;;;;;;;;5031102;28;20048;-77
2021/11/25 08:44:32;;;;;;;25.65;17.75;;;;;;;;;;5021236;28;20048;-81
2021/11/25 08:46:59;;;;;;;26.05;17.65;;;;;;;;;;5015169;28;20025;-78
2021/11/25 08:49:24;;;;;;;26.38;18.38;;;;;;;;;;5023733;28;20021;-81
2021/11/25 08:51:49;;;;;;;26.90;18.23;;;;;;;;;;5022495;28;20040;-81
2021/11/25 08:54:15;;;;;;;26.17;17.92;;;;;;;;;;5011744;28;20522;-80
2021/11/25 08:56:40;;;;;;;29.08;17.98;;;;;;;;;;5014632;28;20044;-80
2021/11/25 08:59:06;;;;;;;25.15;18.73;;;;;;;;;;5013341;28;20025;-78
2021/11/25 09:01:31;;;;;;;28.35;18.00;;;;;;;;;;5029686;28;20045;-78
2021/11/25 09:03:57;;;;;;;28.42;17.88;;;;;;;;;;5026122;28;20112;-77
2021/11/25 09:06:22;;;;;;;25.77;17.50;;;;;;;;;;5031542;28;20013;-78
2021/11/25 09:08:47;;;;;;;25.15;17.40;;;;;;;;;;5015218;28;20752;-78
2021/11/25 09:11:15;;;;;;;26.52;17.23;;;;;;;;;;5029720;28;20033;-79
2021/11/25 09:13:42;;;;;;;28.38;18.23;;;;;;;;;;5032268;28;20098;-80
2021/11/25 09:16:07;;;;;;;28.75;18.63;;;;;;;;;;5020884;28;20029;-78
2021/11/25 09:18:33;;;;;;;26.83;16.77;;;;;;;;;;5016242;28;20041;-81
2021/11/25 09:21:00;;;;;;;28.33;17.38;;;;;;;;;;5032486;28;20029;-78
2021/11/25 09:23:25;;;;;;;28.15;18.27;;;;;;;;;;5016827;28;20060;-78
2021/11/25 09:25:52;;;;;;;27.75;18.23;;;;;;;;;;5024418;28;20033;-80
2021/11/25 09:28:22;;;;;;;27.13;17.17;;;;;;;;;;5031083;28;20079;-80
2021/11/25 09:30:49;;;;;;;26.63;17.25;;;;;;;;;;5012669;28;20021;-80
2021/11/25 09:33:15;;;;;;;28.13;17.08;;;;;;;;;;5038238;28;20029;-77
2021/11/25 09:35:40;;;;;;;27.25;17.13;;;;;;;;;;5032284;28;20037;-81
2021/11/25 09:38:07;;;;;;;29.05;17.98;;;;;;;;;;5017717;28;20017;-81
2021/11/25 09:40:33;;;;;;;28.35;17.48;;;;;;;;;;5018435;28;20029;-77
2021/11/25 09:43:05;;;;;;;28.30;18.08;;;;;;;;;;5033985;28;20028;-81
2021/11/25 09:45:32;;;;;;;28.17;17.67;;;;;;;;;;5034087;28;20040;-78
2021/11/25 09:48:07;;;;;;;28.58;17.67;;;;;;;;;;5031590;28;20103;-80
2021/11/25 09:50:35;;;;;;;28.42;17.52;;;;;;;;;;5017575;28;20078;-78
2021/11/25 09:53:04;;;;;;;30.20;19.33;;;;;;;;;;5017165;28;20045;-81
2021/11/25 09:55:31;;;;;;;28.73;18.10;;;;;;;;;;5036685;28;20037;-80
2021/11/25 09:57:56;;;;;;;30.10;18.33;;;;;;;;;;5016594;28;20021;-81
2021/11/25 10:00:27;;;;;;;30.35;17.67;;;;;;;;;;5033808;28;20100;-77
2021/11/25 10:02:52;;;;;;;29.63;18.08;;;;;;;;;;5020108;28;20384;-78
2021/11/25 10:05:17;;;;;;;29.00;17.02;;;;;;;;;;5017327;28;20026;-78
2021/11/25 10:07:45;;;;;;;32.17;18.25;;;;;;;;;;5038687;28;20022;-80
2021/11/25 10:10:32;;;;;;;30.60;18.58;;;;;;;;;;5026375;28;20091;-78
2021/11/25 10:13:15;;;;;;;31.55;18.33;;;;;;;;;;5033949;28;20028;-80
2021/11/25 10:15:41;;;;;;;35.05;19.52;;;;;;;;;;5029322;28;20384;-77
2021/11/25 10:18:13;;;;;;;30.95;18.90;;;;;;;;;;5013879;28;20034;-81
2021/11/25 10:20:41;;;;;;;31.38;18.13;;;;;;;;;;5033372;28;20032;-78
2021/11/25 10:23:07;;;;;;;29.25;17.73;;;;;;;;;;5034168;28;20021;-80
2021/11/25 10:25:55;;;;;;;31.50;17.98;;;;;;;;;;5019015;28;20120;-77
2021/11/25 10:28:22;;;;;;;34.35;19.60;;;;;;;;;;5016992;28;20079;-80
2021/11/25 10:30:50;;;;;;;33.83;17.88;;;;;;;;;;5028910;28;20112;-76
2021/11/25 10:33:46;;;;;;;35.83;19.33;;;;;;;;;;5024939;28;20025;-77
2021/11/25 10:39:11;;;;;;;37.35;19.45;;;;;;;;;;5032463;28;20084;-80
2021/11/25 10:41:39;;;;;;;35.70;20.13;;;;;;;;;;5012553;28;20084;-78
2021/11/25 10:44:14;;;;;;;37.10;20.63;;;;;;;;;;5019279;28;20029;-80
2021/11/25 10:46:52;;;;;;;35.20;20.35;;;;;;;;;;5008271;28;20504;-81
2021/11/25 10:49:32;;;;;;;38.78;20.90;;;;;;;;;;5016261;28;20025;-81
2021/11/25 10:51:58;;;;;;;38.53;21.83;;;;;;;;;;5028345;28;20029;-81
2021/11/25 10:54:24;;;;;;;36.33;21.02;;;;;;;;;;5017258;28;20568;-80
2021/11/25 10:56:55;;;;;;;35.60;20.13;;;;;;;;;;5030429;28;20396;-78
2021/11/25 10:59:33;;;;;;;36.42;21.80;;;;;;;;;;5026949;28;20029;-79
2021/11/25 11:01:59;;;;;;;36.70;20.90;;;;;;;;;;5014068;28;20038;-81
2021/11/25 11:04:28;;;;;;;37.60;20.85;;;;;;;;;;5016652;28;20045;-81
2021/11/25 11:06:54;;;;;;;36.72;20.52;;;;;;;;;;5018423;28;20419;-81
2021/11/25 11:09:35;;;;;;;40.72;22.33;;;;;;;;;;5032060;28;20049;-77
2021/11/25 11:12:29;;;;;;;41.53;21.33;;;;;;;;;;5032439;28;20049;-77
2021/11/25 11:14:56;;;;;;;39.85;21.63;;;;;;;;;;5032331;28;20021;-78
2021/11/25 11:17:33;;;;;;;40.03;22.10;;;;;;;;;;5018406;28;20480;-78
2021/11/25 11:20:25;;;;;;;50.78;24.08;;;;;;;;;;5015821;28;20032;-78
2021/11/25 11:23:03;;;;;;;42.10;22.95;;;;;;;;;;5020389;28;20095;-80
2021/11/25 11:25:33;;;;;;;46.67;23.83;;;;;;;;;;5014415;28;20038;-77
2021/11/25 11:28:00;;;;;;;41.03;22.05;;;;;;;;;;5033167;28;20445;-81
2021/11/25 11:30:26;;;;;;;38.72;21.92;;;;;;;;;;5033496;28;20048;-80
2021/11/25 11:32:52;;;;;;;41.92;22.77;;;;;;;;;;5032008;28;20027;-80
2021/11/25 11:35:22;;;;;;;41.67;22.13;;;;;;;;;;5032153;28;20113;-81
2021/11/25 11:37:47;;;;;;;37.67;21.27;;;;;;;;;;5015702;28;20585;-78
2021/11/25 11:40:13;;;;;;;38.13;21.58;;;;;;;;;;5025941;28;20112;-81
2021/11/25 11:42:38;;;;;;;38.25;21.23;;;;;;;;;;5013802;28;20025;-81
2021/11/25 11:45:05;;;;;;;42.10;21.13;;;;;;;;;;5022046;28;20025;-77
2021/11/25 11:47:32;;;;;;;40.63;20.58;;;;;;;;;;5029622;28;20774;-83
2021/11/25 11:50:09;;;;;;;40.88;22.27;;;;;;;;;;5015229;28;20025;-79
2021/11/25 11:52:55;;;;;;;37.00;20.83;;;;;;;;;;5028692;28;20037;-79
2021/11/25 11:55:34;;;;;;;41.30;21.10;;;;;;;;;;5033188;28;20041;-77
2021/11/25 11:58:01;;;;;;;40.97;21.70;;;;;;;;;;5012654;28;20037;-79
2021/11/25 12:00:26;;;;;;;38.70;19.98;;;;;;;;;;5028731;28;20083;-81
2021/11/25 12:02:54;;;;;;;36.75;20.92;;;;;;;;;;5026973;28;20029;-76
2021/11/25 12:05:46;;;;;;;39.75;21.58;;;;;;;;;;5031045;28;20499;-80
2021/11/25 12:08:20;;;;;;;41.70;21.08;;;;;;;;;;5039395;28;20049;-77
2021/11/25 12:11:08;;;;;;;39.25;21.05;;;;;;;;;;5028921;28;20124;-77
2021/11/25 12:13:38;;;;;;;39.17;21.40;;;;;;;;;;5016837;28;20036;-77
2021/11/25 12:16:15;;;;;;;36.53;21.05;;;;;;;;;;5022453;28;20025;-78
2021/11/25 12:18:41;;;;;;;39.80;20.23;;;;;;;;;;5017911;28;20029;-81
2021/11/25 12:21:06;;;;;;;37.72;20.48;;;;;;;;;;5014987;28;20817;-80
2021/11/25 12:23:37;;;;;;;37.83;20.35;;;;;;;;;;5014967;28;20069;-79
2021/11/25 12:26:03;;;;;;;40.15;20.60;;;;;;;;;;5021120;28;20028;-81
2021/11/25 12:28:30;;;;;;;37.85;19.65;;;;;;;;;;5036151;28;20546;-81
2021/11/25 12:33:56;;;;;;;38.78;19.33;;;;;;;;;;5006473;28;20044;-81
2021/11/25 12:36:36;;;;;;;35.85;18.58;;;;;;;;;;5011634;28;20029;-81
2021/11/25 12:39:26;;;;;;;32.63;17.08;;;;;;;;;;5017708;28;20481;-81
2021/11/25 12:41:51;;;;;;;38.05;19.52;;;;;;;;;;5017408;28;20051;-80
2021/11/25 12:44:17;;;;;;;39.30;19.80;;;;;;;;;;5034945;28;20041;-79
2021/11/25 12:46:42;;;;;;;39.35;19.92;;;;;;;;;;5031957;28;20113;-81
2021/11/25 12:49:14;;;;;;;35.58;18.02;;;;;;;;;;5033882;28;20436;-77
2021/11/25 12:51:39;;;;;;;33.45;18.08;;;;;;;;;;5015162;28;20022;-77
2021/11/25 12:54:08;;;;;;;33.55;17.17;;;;;;;;;;5015110;28;20128;-80
2021/11/25 12:56:39;;;;;;;30.40;16.10;;;;;;;;;;5031191;28;20061;-80
2021/11/25 12:59:10;;;;;;;32.67;15.20;;;;;;;;;;5034828;28;20029;-76
2021/11/25 13:01:44;;;;;;;31.05;15.57;;;;;;;;;;5028619;28;20515;-81
2021/11/25 13:04:10;;;;;;;33.17;15.93;;;;;;;;;;5015054;28;20025;-78
2021/11/25 13:06:42;;;;;;;33.13;15.18;;;;;;;;;;5018498;28;20079;-80
2021/11/25 13:09:14;;;;;;;28.42;14.48;;;;;;;;;;5017445;28;20048;-76
2021/11/25 13:11:41;;;;;;;34.65;16.13;;;;;;;;;;5034284;28;20086;-80
2021/11/25 13:14:21;;;;;;;34.33;17.48;;;;;;;;;;5033248;28;20151;-82
2021/11/25 13:16:54;;;;;;;30.88;16.52;;;;;;;;;;5022048;28;20026;-78
2021/11/25 13:19:22;;;;;;;32.47;17.90;;;;;;;;;;5048407;28;20029;-80
2021/11/25 13:21:51;;;;;;;33.13;17.50;;;;;;;;;;5022999;28;20428;-81
2021/11/25 13:24:31;;;;;;;32.78;17.52;;;;;;;;;;5013288;28;20372;-80
2021/11/25 13:27:01;;;;;;;32.97;16.95;;;;;;;;;;5029127;28;20033;-81
2021/11/25 13:29:46;;;;;;;36.97;18.02;;;;;;;;;;5013922;28;20519;-76
2021/11/25 13:32:18;;;;;;;33.03;16.65;;;;;;;;;;5016524;28;20540;-80
2021/11/25 13:34:46;;;;;;;33.90;16.67;;;;;;;;;;5033194;28;20116;-78
2021/11/25 13:37:19;;;;;;;34.65;16.65;;;;;;;;;;5015874;28;20025;-78
2021/11/25 13:39:46;;;;;;;;;;;;;;;;;;5049396;28;20023;-80
2021/11/25 13:42:16;;;;;;;29.77;13.88;;;;;;;;;;5035177;28;19912;-77
2021/11/25 13:44:45;;;;;;;27.45;12.50;;;;;;;;;;5015612;28;20040;-78
2021/11/25 13:47:21;;;;;;;24.52;12.63;;;;;;;;;;5011547;28;20112;-81
2021/11/25 13:50:05;;;;;;;27.85;12.52;;;;;;;;;;5015437;28;20063;-80
2021/11/25 13:52:47;;;;;;;28.50;12.05;;;;;;;;;;5032194;28;20389;-79
2021/11/25 13:55:19;;;;;;;26.50;12.32;;;;;;;;;;5029537;28;20060;-82
2021/11/25 13:57:46;;;;;;;25.88;12.40;;;;;;;;;;5021976;28;20075;-80
2021/11/25 14:00:15;;;;;;;24.73;12.73;;;;;;;;;;5015406;28;20037;-78
2021/11/25 14:02:45;;;;;;;26.83;12.98;;;;;;;;;;5017213;28;20094;-78
2021/11/25 14:05:15;;;;;;;25.92;11.50;;;;;;;;;;5009197;28;20109;-82
2021/11/25 14:07:41;;;;;;;22.88;10.93;;;;;;;;;;5021047;28;20029;-80
2021/11/25 14:10:24;;;;;;;23.35;10.27;;;;;;;;;;5031771;28;20370;-81
2021/11/25 14:12:54;;;;;;;22.50;10.20;;;;;;;;;;5014854;28;20099;-78
2021/11/25 14:15:30;;;;;;;20.95;8.32;;;;;;;;;;5043578;28;20029;-78
2021/11/25 14:17:56;;;;;;;19.35;7.00;;;;;;;;;;5031612;28;20100;-76
2021/11/25 14:20:30;;;;;;;15.48;5.20;;;;;;;;;;5015022;28;20040;-81
2021/11/25 14:23:00;;;;;;;12.82;4.28;;;;;;;;;;5015960;28;20029;-81
2021/11/25 14:25:33;;;;;;;13.15;3.65;;;;;;;;;;5019709;28;20116;-81
2021/11/25 14:31:12;;;;;;;8.90;2.70;;;;;;;;;;5028649;28;20044;-78
2021/11/25 14:33:46;;;;;;;10.68;2.97;;;;;;;;;;5037149;28;20031;-79
2021/11/25 14:36:22;;;;;;;8.23;2.60;;;;;;;;;;5016066;28;20107;-78
2021/11/25 14:38:48;;;;;;;9.25;2.35;;;;;;;;;;5031345;28;20025;-81